sensor_id;sensor_type;location;lat;lon;timestamp;temperature;humidity
22456;DHT22;11395;53.204;6.502;2023-05-07T00:00:25;24.20;62.30
22456;DHT22;11395;53.204;6.502;2023-05-07T00:02:51;24.20;62.40
22456;DHT22;11395;53.204;6.502;2023-05-07T00:05:18;24.10;62.40
22456;DHT22;11395;53.204;6.502;2023-05-07T00:07:44;24.10;62.40
22456;DHT22;11395;53.204;6.502;2023-05-07T00:10:10;24.10;62.50
22456;DHT22;11395;53.204;6.502;2023-05-07T00:12:38;24.10;62.50
22456;DHT22;11395;53.204;6.502;2023-05-07T00:15:05;24.10;62.60
22456;DHT22;11395;53.204;6.502;2023-05-07T00:17:33;24.10;62.60
22456;DHT22;11395;53.204;6.502;2023-05-07T00:19:59;24.00;62.70
22456;DHT22;11395;53.204;6.502;2023-05-07T00:22:25;24.00;62.70
22456;DHT22;11395;53.204;6.502;2023-05-07T00:24:52;24.00;62.70
22456;DHT22;11395;53.204;6.502;2023-05-07T00:27:18;24.00;62.60
22456;DHT22;11395;53.204;6.502;2023-05-07T00:29:44;24.00;63.50
22456;DHT22;11395;53.204;6.502;2023-05-07T00:32:10;23.90;62.50
22456;DHT22;11395;53.204;6.502;2023-05-07T00:34:36;23.90;62.60
22456;DHT22;11395;53.204;6.502;2023-05-07T00:37:03;23.90;62.60
22456;DHT22;11395;53.204;6.502;2023-05-07T00:39:29;23.90;62.60
22456;DHT22;11395;53.204;6.502;2023-05-07T00:41:55;23.90;62.60
22456;DHT22;11395;53.204;6.502;2023-05-07T00:44:21;23.90;62.60
22456;DHT22;11395;53.204;6.502;2023-05-07T00:46:48;23.90;62.50
22456;DHT22;11395;53.204;6.502;2023-05-07T00:49:16;23.80;62.50
22456;DHT22;11395;53.204;6.502;2023-05-07T00:51:42;23.80;62.70
22456;DHT22;11395;53.204;6.502;2023-05-07T00:54:09;23.80;62.60
22456;DHT22;11395;53.204;6.502;2023-05-07T00:56:36;23.80;62.70
22456;DHT22;11395;53.204;6.502;2023-05-07T00:59:02;23.80;62.60
22456;DHT22;11395;53.204;6.502;2023-05-07T01:01:29;23.80;62.60
22456;DHT22;11395;53.204;6.502;2023-05-07T01:03:55;23.80;62.60
22456;DHT22;11395;53.204;6.502;2023-05-07T01:06:23;23.80;62.70
22456;DHT22;11395;53.204;6.502;2023-05-07T01:08:52;23.70;62.70
22456;DHT22;11395;53.204;6.502;2023-05-07T01:11:19;23.70;62.70
22456;DHT22;11395;53.204;6.502;2023-05-07T01:13:46;23.70;62.70
22456;DHT22;11395;53.204;6.502;2023-05-07T01:16:13;23.70;62.60
22456;DHT22;11395;53.204;6.502;2023-05-07T01:18:39;23.70;62.60
22456;DHT22;11395;53.204;6.502;2023-05-07T01:21:07;23.70;62.60
22456;DHT22;11395;53.204;6.502;2023-05-07T01:23:36;23.70;62.70
22456;DHT22;11395;53.204;6.502;2023-05-07T01:26:04;23.60;62.70
22456;DHT22;11395;53.204;6.502;2023-05-07T01:28:32;23.60;62.70
22456;DHT22;11395;53.204;6.502;2023-05-07T01:31:02;23.60;62.60
22456;DHT22;11395;53.204;6.502;2023-05-07T01:33:34;23.60;62.60
22456;DHT22;11395;53.204;6.502;2023-05-07T01:36:01;23.60;62.60
22456;DHT22;11395;53.204;6.502;2023-05-07T01:38:30;23.60;62.60
22456;DHT22;11395;53.204;6.502;2023-05-07T01:40:57;23.60;62.60
22456;DHT22;11395;53.204;6.502;2023-05-07T01:43:23;23.60;62.60
22456;DHT22;11395;53.204;6.502;2023-05-07T01:45:50;23.60;62.50
22456;DHT22;11395;53.204;6.502;2023-05-07T01:48:17;23.60;62.50
22456;DHT22;11395;53.204;6.502;2023-05-07T01:50:44;23.60;62.50
22456;DHT22;11395;53.204;6.502;2023-05-07T01:53:10;23.60;62.50
22456;DHT22;11395;53.204;6.502;2023-05-07T01:55:37;23.50;62.40
22456;DHT22;11395;53.204;6.502;2023-05-07T01:58:04;23.60;62.50
22456;DHT22;11395;53.204;6.502;2023-05-07T02:00:30;23.50;62.50
22456;DHT22;11395;53.204;6.502;2023-05-07T02:02:57;23.50;62.40
22456;DHT22;11395;53.204;6.502;2023-05-07T02:05:38;23.50;62.40
22456;DHT22;11395;53.204;6.502;2023-05-07T02:08:14;23.50;62.40
22456;DHT22;11395;53.204;6.502;2023-05-07T02:10:40;23.50;62.50
22456;DHT22;11395;53.204;6.502;2023-05-07T02:13:06;23.40;62.40
22456;DHT22;11395;53.204;6.502;2023-05-07T02:15:33;23.40;62.30
22456;DHT22;11395;53.204;6.502;2023-05-07T02:18:05;23.40;62.90
22456;DHT22;11395;53.204;6.502;2023-05-07T02:20:32;23.40;62.50
22456;DHT22;11395;53.204;6.502;2023-05-07T02:22:58;23.40;62.50
22456;DHT22;11395;53.204;6.502;2023-05-07T02:25:26;23.40;62.50
22456;DHT22;11395;53.204;6.502;2023-05-07T02:27:53;23.30;62.60
22456;DHT22;11395;53.204;6.502;2023-05-07T02:30:22;23.30;62.50
22456;DHT22;11395;53.204;6.502;2023-05-07T02:32:51;23.30;62.50
22456;DHT22;11395;53.204;6.502;2023-05-07T02:35:17;23.30;62.60
22456;DHT22;11395;53.204;6.502;2023-05-07T02:37:44;23.30;62.60
22456;DHT22;11395;53.204;6.502;2023-05-07T02:40:10;23.30;62.60
22456;DHT22;11395;53.204;6.502;2023-05-07T02:42:37;23.20;62.60
22456;DHT22;11395;53.204;6.502;2023-05-07T02:45:04;23.20;62.50
22456;DHT22;11395;53.204;6.502;2023-05-07T02:47:31;23.20;62.60
22456;DHT22;11395;53.204;6.502;2023-05-07T02:49:58;23.20;62.60
22456;DHT22;11395;53.204;6.502;2023-05-07T02:52:25;23.20;62.70
22456;DHT22;11395;53.204;6.502;2023-05-07T02:54:51;23.20;62.70
22456;DHT22;11395;53.204;6.502;2023-05-07T02:57:17;23.10;63.50
22456;DHT22;11395;53.204;6.502;2023-05-07T02:59:43;23.20;62.70
22456;DHT22;11395;53.204;6.502;2023-05-07T03:02:10;23.10;62.70
22456;DHT22;11395;53.204;6.502;2023-05-07T03:04:36;23.10;62.70
22456;DHT22;11395;53.204;6.502;2023-05-07T03:07:02;23.10;62.60
22456;DHT22;11395;53.204;6.502;2023-05-07T03:09:28;23.10;62.70
22456;DHT22;11395;53.204;6.502;2023-05-07T03:11:56;23.10;62.70
22456;DHT22;11395;53.204;6.502;2023-05-07T03:14:22;23.10;62.80
22456;DHT22;11395;53.204;6.502;2023-05-07T03:16:49;23.00;62.70
22456;DHT22;11395;53.204;6.502;2023-05-07T03:19:15;23.00;62.70
22456;DHT22;11395;53.204;6.502;2023-05-07T03:21:42;23.00;62.60
22456;DHT22;11395;53.204;6.502;2023-05-07T03:24:08;23.00;62.70
22456;DHT22;11395;53.204;6.502;2023-05-07T03:26:34;23.00;62.70
22456;DHT22;11395;53.204;6.502;2023-05-07T03:29:00;23.00;62.70
22456;DHT22;11395;53.204;6.502;2023-05-07T03:31:26;23.00;62.70
22456;DHT22;11395;53.204;6.502;2023-05-07T03:33:55;22.90;62.60
22456;DHT22;11395;53.204;6.502;2023-05-07T03:36:21;22.90;62.60
22456;DHT22;11395;53.204;6.502;2023-05-07T03:38:48;22.90;62.60
22456;DHT22;11395;53.204;6.502;2023-05-07T03:41:18;22.90;62.60
22456;DHT22;11395;53.204;6.502;2023-05-07T03:43:45;22.90;62.60
22456;DHT22;11395;53.204;6.502;2023-05-07T03:46:12;22.90;62.70
22456;DHT22;11395;53.204;6.502;2023-05-07T03:48:40;22.90;62.80
22456;DHT22;11395;53.204;6.502;2023-05-07T03:51:06;22.90;62.90
22456;DHT22;11395;53.204;6.502;2023-05-07T03:53:33;22.90;62.70
22456;DHT22;11395;53.204;6.502;2023-05-07T03:56:00;22.90;62.60
22456;DHT22;11395;53.204;6.502;2023-05-07T03:58:27;22.90;62.50
22456;DHT22;11395;53.204;6.502;2023-05-07T04:00:57;23.00;62.60
22456;DHT22;11395;53.204;6.502;2023-05-07T04:03:27;23.00;62.50
22456;DHT22;11395;53.204;6.502;2023-05-07T04:05:56;23.10;62.60
22456;DHT22;11395;53.204;6.502;2023-05-07T04:08:22;23.10;62.50
22456;DHT22;11395;53.204;6.502;2023-05-07T04:10:56;23.20;62.50
22456;DHT22;11395;53.204;6.502;2023-05-07T04:13:24;23.20;62.50
22456;DHT22;11395;53.204;6.502;2023-05-07T04:15:52;23.30;62.40
22456;DHT22;11395;53.204;6.502;2023-05-07T04:18:19;23.40;62.20
22456;DHT22;11395;53.204;6.502;2023-05-07T04:20:48;23.50;62.20
22456;DHT22;11395;53.204;6.502;2023-05-07T04:23:15;23.60;62.00
22456;DHT22;11395;53.204;6.502;2023-05-07T04:25:41;23.70;61.90
22456;DHT22;11395;53.204;6.502;2023-05-07T04:28:19;23.70;61.80
22456;DHT22;11395;53.204;6.502;2023-05-07T04:30:46;23.80;61.70
22456;DHT22;11395;53.204;6.502;2023-05-07T04:33:14;23.90;61.60
22456;DHT22;11395;53.204;6.502;2023-05-07T04:35:43;23.90;61.50
22456;DHT22;11395;53.204;6.502;2023-05-07T04:38:09;23.90;61.40
22456;DHT22;11395;53.204;6.502;2023-05-07T04:40:36;24.00;61.30
22456;DHT22;11395;53.204;6.502;2023-05-07T04:43:03;24.10;61.30
22456;DHT22;11395;53.204;6.502;2023-05-07T04:45:32;24.10;61.20
22456;DHT22;11395;53.204;6.502;2023-05-07T04:47:59;24.10;61.20
22456;DHT22;11395;53.204;6.502;2023-05-07T04:50:25;24.10;61.10
22456;DHT22;11395;53.204;6.502;2023-05-07T04:52:55;24.20;61.10
22456;DHT22;11395;53.204;6.502;2023-05-07T04:55:23;24.20;61.00
22456;DHT22;11395;53.204;6.502;2023-05-07T04:57:49;24.30;61.00
22456;DHT22;11395;53.204;6.502;2023-05-07T05:00:16;24.40;60.90
22456;DHT22;11395;53.204;6.502;2023-05-07T05:02:46;24.50;60.80
22456;DHT22;11395;53.204;6.502;2023-05-07T05:05:15;24.60;60.70
22456;DHT22;11395;53.204;6.502;2023-05-07T05:07:42;24.70;60.70
22456;DHT22;11395;53.204;6.502;2023-05-07T05:10:08;24.80;60.50
22456;DHT22;11395;53.204;6.502;2023-05-07T05:12:37;24.90;60.40
22456;DHT22;11395;53.204;6.502;2023-05-07T05:15:04;24.90;60.30
22456;DHT22;11395;53.204;6.502;2023-05-07T05:17:32;25.00;60.20
22456;DHT22;11395;53.204;6.502;2023-05-07T05:20:01;25.10;60.10
22456;DHT22;11395;53.204;6.502;2023-05-07T05:22:28;25.20;60.10
22456;DHT22;11395;53.204;6.502;2023-05-07T05:24:57;25.20;60.00
22456;DHT22;11395;53.204;6.502;2023-05-07T05:27:24;25.30;59.90
22456;DHT22;11395;53.204;6.502;2023-05-07T05:29:50;25.30;59.70
22456;DHT22;11395;53.204;6.502;2023-05-07T05:32:17;25.40;59.80
22456;DHT22;11395;53.204;6.502;2023-05-07T05:34:44;25.40;59.60
22456;DHT22;11395;53.204;6.502;2023-05-07T05:37:10;25.40;59.50
22456;DHT22;11395;53.204;6.502;2023-05-07T05:39:37;25.40;59.30
22456;DHT22;11395;53.204;6.502;2023-05-07T05:42:04;25.50;59.50
22456;DHT22;11395;53.204;6.502;2023-05-07T05:44:33;25.40;59.30
22456;DHT22;11395;53.204;6.502;2023-05-07T05:46:59;25.50;59.40
22456;DHT22;11395;53.204;6.502;2023-05-07T05:49:26;25.50;59.20
22456;DHT22;11395;53.204;6.502;2023-05-07T05:51:52;25.50;59.10
22456;DHT22;11395;53.204;6.502;2023-05-07T05:54:19;25.50;59.10
22456;DHT22;11395;53.204;6.502;2023-05-07T05:56:46;25.50;59.10
22456;DHT22;11395;53.204;6.502;2023-05-07T05:59:13;25.50;59.00
22456;DHT22;11395;53.204;6.502;2023-05-07T06:01:39;25.50;59.10
22456;DHT22;11395;53.204;6.502;2023-05-07T06:04:06;25.50;59.00
22456;DHT22;11395;53.204;6.502;2023-05-07T06:06:32;25.50;59.00
22456;DHT22;11395;53.204;6.502;2023-05-07T06:08:59;25.50;59.10
22456;DHT22;11395;53.204;6.502;2023-05-07T06:11:32;25.50;58.80
22456;DHT22;11395;53.204;6.502;2023-05-07T06:13:58;25.50;58.80
22456;DHT22;11395;53.204;6.502;2023-05-07T06:16:25;25.50;58.80
22456;DHT22;11395;53.204;6.502;2023-05-07T06:18:51;25.50;58.80
22456;DHT22;11395;53.204;6.502;2023-05-07T06:21:18;25.40;58.70
22456;DHT22;11395;53.204;6.502;2023-05-07T06:23:44;25.40;58.70
22456;DHT22;11395;53.204;6.502;2023-05-07T06:26:10;25.40;58.60
22456;DHT22;11395;53.204;6.502;2023-05-07T06:28:41;25.40;58.60
22456;DHT22;11395;53.204;6.502;2023-05-07T06:31:20;25.40;58.60
22456;DHT22;11395;53.204;6.502;2023-05-07T06:33:52;25.40;58.70
22456;DHT22;11395;53.204;6.502;2023-05-07T06:36:19;25.40;58.60
22456;DHT22;11395;53.204;6.502;2023-05-07T06:38:46;25.30;58.50
22456;DHT22;11395;53.204;6.502;2023-05-07T06:41:12;25.30;58.50
22456;DHT22;11395;53.204;6.502;2023-05-07T06:43:38;25.30;58.50
22456;DHT22;11395;53.204;6.502;2023-05-07T06:46:32;25.30;58.60
22456;DHT22;11395;53.204;6.502;2023-05-07T06:48:58;25.30;58.60
22456;DHT22;11395;53.204;6.502;2023-05-07T06:51:25;25.20;58.60
22456;DHT22;11395;53.204;6.502;2023-05-07T06:53:52;25.20;58.60
22456;DHT22;11395;53.204;6.502;2023-05-07T06:56:19;25.20;58.60
22456;DHT22;11395;53.204;6.502;2023-05-07T06:58:45;25.20;58.70
22456;DHT22;11395;53.204;6.502;2023-05-07T07:01:12;25.20;58.70
22456;DHT22;11395;53.204;6.502;2023-05-07T07:03:39;25.20;58.70
22456;DHT22;11395;53.204;6.502;2023-05-07T07:06:05;25.20;58.70
22456;DHT22;11395;53.204;6.502;2023-05-07T07:08:32;25.20;58.70
22456;DHT22;11395;53.204;6.502;2023-05-07T07:10:58;25.20;58.80
22456;DHT22;11395;53.204;6.502;2023-05-07T07:13:25;25.30;59.00
22456;DHT22;11395;53.204;6.502;2023-05-07T07:15:51;25.30;59.00
22456;DHT22;11395;53.204;6.502;2023-05-07T07:18:18;25.30;58.90
22456;DHT22;11395;53.204;6.502;2023-05-07T07:20:47;25.30;58.70
22456;DHT22;11395;53.204;6.502;2023-05-07T07:23:13;25.30;58.70
22456;DHT22;11395;53.204;6.502;2023-05-07T07:25:41;25.30;58.70
22456;DHT22;11395;53.204;6.502;2023-05-07T07:28:07;25.30;58.70
22456;DHT22;11395;53.204;6.502;2023-05-07T07:30:35;25.30;58.70
22456;DHT22;11395;53.204;6.502;2023-05-07T07:33:01;25.30;58.80
22456;DHT22;11395;53.204;6.502;2023-05-07T07:35:32;25.30;58.90
22456;DHT22;11395;53.204;6.502;2023-05-07T07:37:58;25.30;59.00
22456;DHT22;11395;53.204;6.502;2023-05-07T07:40:25;25.30;59.00
22456;DHT22;11395;53.204;6.502;2023-05-07T07:42:52;25.30;59.10
22456;DHT22;11395;53.204;6.502;2023-05-07T07:45:18;25.30;59.20
22456;DHT22;11395;53.204;6.502;2023-05-07T07:47:47;25.10;59.70
22456;DHT22;11395;53.204;6.502;2023-05-07T07:50:13;25.30;59.20
22456;DHT22;11395;53.204;6.502;2023-05-07T07:52:40;25.30;59.20
22456;DHT22;11395;53.204;6.502;2023-05-07T07:55:07;25.30;59.20
22456;DHT22;11395;53.204;6.502;2023-05-07T07:57:34;25.30;59.20
22456;DHT22;11395;53.204;6.502;2023-05-07T08:00:01;25.30;59.20
22456;DHT22;11395;53.204;6.502;2023-05-07T08:02:30;25.40;59.20
22456;DHT22;11395;53.204;6.502;2023-05-07T08:04:57;25.40;59.30
22456;DHT22;11395;53.204;6.502;2023-05-07T08:07:23;25.30;59.20
22456;DHT22;11395;53.204;6.502;2023-05-07T08:09:50;25.30;59.20
22456;DHT22;11395;53.204;6.502;2023-05-07T08:12:20;25.30;59.20
22456;DHT22;11395;53.204;6.502;2023-05-07T08:14:46;25.30;59.20
22456;DHT22;11395;53.204;6.502;2023-05-07T08:17:13;25.30;59.30
22456;DHT22;11395;53.204;6.502;2023-05-07T08:19:42;25.30;59.40
22456;DHT22;11395;53.204;6.502;2023-05-07T08:22:12;25.30;59.60
22456;DHT22;11395;53.204;6.502;2023-05-07T08:24:38;25.30;59.70
22456;DHT22;11395;53.204;6.502;2023-05-07T08:27:05;25.30;59.40
22456;DHT22;11395;53.204;6.502;2023-05-07T08:29:31;25.30;59.50
22456;DHT22;11395;53.204;6.502;2023-05-07T08:31:59;25.20;59.60
22456;DHT22;11395;53.204;6.502;2023-05-07T08:34:25;25.20;59.50
22456;DHT22;11395;53.204;6.502;2023-05-07T08:36:53;25.20;59.50
22456;DHT22;11395;53.204;6.502;2023-05-07T08:39:22;25.20;59.50
22456;DHT22;11395;53.204;6.502;2023-05-07T08:41:55;25.20;59.50
22456;DHT22;11395;53.204;6.502;2023-05-07T08:44:26;25.20;59.50
22456;DHT22;11395;53.204;6.502;2023-05-07T08:46:56;25.20;59.50
22456;DHT22;11395;53.204;6.502;2023-05-07T08:49:23;25.10;59.60
22456;DHT22;11395;53.204;6.502;2023-05-07T08:51:51;25.10;59.50
22456;DHT22;11395;53.204;6.502;2023-05-07T08:54:20;25.10;59.50
22456;DHT22;11395;53.204;6.502;2023-05-07T08:56:48;25.10;59.60
22456;DHT22;11395;53.204;6.502;2023-05-07T08:59:14;25.20;59.70
22456;DHT22;11395;53.204;6.502;2023-05-07T09:01:42;25.20;59.80
22456;DHT22;11395;53.204;6.502;2023-05-07T09:04:09;25.20;59.80
22456;DHT22;11395;53.204;6.502;2023-05-07T09:06:36;25.30;59.70
22456;DHT22;11395;53.204;6.502;2023-05-07T09:09:05;25.30;59.70
22456;DHT22;11395;53.204;6.502;2023-05-07T09:11:33;25.40;59.70
22456;DHT22;11395;53.204;6.502;2023-05-07T09:14:00;25.50;59.60
22456;DHT22;11395;53.204;6.502;2023-05-07T09:16:30;25.50;59.50
22456;DHT22;11395;53.204;6.502;2023-05-07T09:18:59;25.50;59.40
22456;DHT22;11395;53.204;6.502;2023-05-07T09:21:26;25.60;59.40
22456;DHT22;11395;53.204;6.502;2023-05-07T09:23:55;25.60;59.30
22456;DHT22;11395;53.204;6.502;2023-05-07T09:26:27;25.70;59.30
22456;DHT22;11395;53.204;6.502;2023-05-07T09:28:54;25.70;59.30
22456;DHT22;11395;53.204;6.502;2023-05-07T09:31:20;25.70;59.20
22456;DHT22;11395;53.204;6.502;2023-05-07T09:33:49;25.70;59.10
22456;DHT22;11395;53.204;6.502;2023-05-07T09:36:16;25.70;59.00
22456;DHT22;11395;53.204;6.502;2023-05-07T09:38:45;25.70;59.00
22456;DHT22;11395;53.204;6.502;2023-05-07T09:41:13;25.80;59.10
22456;DHT22;11395;53.204;6.502;2023-05-07T09:43:54;25.80;59.00
22456;DHT22;11395;53.204;6.502;2023-05-07T09:46:27;25.80;58.90
22456;DHT22;11395;53.204;6.502;2023-05-07T09:48:57;25.80;59.00
22456;DHT22;11395;53.204;6.502;2023-05-07T09:54:02;25.80;58.90
22456;DHT22;11395;53.204;6.502;2023-05-07T09:56:31;25.80;58.90
22456;DHT22;11395;53.204;6.502;2023-05-07T09:59:00;25.80;58.90
22456;DHT22;11395;53.204;6.502;2023-05-07T10:01:28;25.80;58.90
22456;DHT22;11395;53.204;6.502;2023-05-07T10:03:55;25.80;58.90
22456;DHT22;11395;53.204;6.502;2023-05-07T10:06:23;25.80;58.90
22456;DHT22;11395;53.204;6.502;2023-05-07T10:08:51;25.80;58.80
22456;DHT22;11395;53.204;6.502;2023-05-07T10:11:18;25.80;58.70
22456;DHT22;11395;53.204;6.502;2023-05-07T10:13:46;25.80;58.70
22456;DHT22;11395;53.204;6.502;2023-05-07T10:16:14;25.80;58.70
22456;DHT22;11395;53.204;6.502;2023-05-07T10:18:45;25.80;58.70
22456;DHT22;11395;53.204;6.502;2023-05-07T10:21:18;25.80;58.70
22456;DHT22;11395;53.204;6.502;2023-05-07T10:23:48;25.80;58.70
22456;DHT22;11395;53.204;6.502;2023-05-07T10:26:20;25.80;58.80
22456;DHT22;11395;53.204;6.502;2023-05-07T10:28:51;25.80;58.70
22456;DHT22;11395;53.204;6.502;2023-05-07T10:31:44;25.80;58.70
22456;DHT22;11395;53.204;6.502;2023-05-07T10:34:19;25.80;58.80
22456;DHT22;11395;53.204;6.502;2023-05-07T10:36:47;25.80;58.70
22456;DHT22;11395;53.204;6.502;2023-05-07T10:39:15;25.80;58.60
22456;DHT22;11395;53.204;6.502;2023-05-07T10:41:41;25.80;58.50
22456;DHT22;11395;53.204;6.502;2023-05-07T10:44:08;25.90;58.50
22456;DHT22;11395;53.204;6.502;2023-05-07T10:46:36;25.90;58.40
22456;DHT22;11395;53.204;6.502;2023-05-07T10:49:19;25.90;58.40
22456;DHT22;11395;53.204;6.502;2023-05-07T10:52:15;26.00;58.30
22456;DHT22;11395;53.204;6.502;2023-05-07T10:57:47;26.10;58.30
22456;DHT22;11395;53.204;6.502;2023-05-07T11:05:41;26.20;58.20
22456;DHT22;11395;53.204;6.502;2023-05-07T11:08:14;26.20;58.10
22456;DHT22;11395;53.204;6.502;2023-05-07T11:10:54;26.20;58.00
22456;DHT22;11395;53.204;6.502;2023-05-07T11:13:53;26.20;58.00
22456;DHT22;11395;53.204;6.502;2023-05-07T11:16:27;26.30;58.00
22456;DHT22;11395;53.204;6.502;2023-05-07T11:19:08;26.30;57.90
22456;DHT22;11395;53.204;6.502;2023-05-07T11:21:41;26.30;57.90
22456;DHT22;11395;53.204;6.502;2023-05-07T11:24:18;26.30;57.90
22456;DHT22;11395;53.204;6.502;2023-05-07T11:26:53;26.30;57.90
22456;DHT22;11395;53.204;6.502;2023-05-07T11:29:22;26.30;57.90
22456;DHT22;11395;53.204;6.502;2023-05-07T11:31:51;26.30;58.00
22456;DHT22;11395;53.204;6.502;2023-05-07T11:34:26;26.30;57.90
22456;DHT22;11395;53.204;6.502;2023-05-07T11:36:55;26.30;58.00
22456;DHT22;11395;53.204;6.502;2023-05-07T11:39:32;26.30;58.00
22456;DHT22;11395;53.204;6.502;2023-05-07T11:42:02;26.30;58.10
22456;DHT22;11395;53.204;6.502;2023-05-07T11:44:44;26.30;58.10
22456;DHT22;11395;53.204;6.502;2023-05-07T11:47:17;26.30;58.20
22456;DHT22;11395;53.204;6.502;2023-05-07T11:49:47;26.40;58.30
22456;DHT22;11395;53.204;6.502;2023-05-07T11:52:14;26.40;58.20
22456;DHT22;11395;53.204;6.502;2023-05-07T11:54:41;26.50;58.20
22456;DHT22;11395;53.204;6.502;2023-05-07T11:57:14;26.50;58.20
22456;DHT22;11395;53.204;6.502;2023-05-07T11:59:40;26.60;58.80
22456;DHT22;11395;53.204;6.502;2023-05-07T12:02:07;26.60;58.10
22456;DHT22;11395;53.204;6.502;2023-05-07T12:04:34;26.60;58.10
22456;DHT22;11395;53.204;6.502;2023-05-07T12:07:00;26.60;58.00
22456;DHT22;11395;53.204;6.502;2023-05-07T12:09:27;26.70;58.00
22456;DHT22;11395;53.204;6.502;2023-05-07T12:11:53;26.70;57.90
22456;DHT22;11395;53.204;6.502;2023-05-07T12:14:19;26.80;58.00
22456;DHT22;11395;53.204;6.502;2023-05-07T12:16:46;26.80;57.90
22456;DHT22;11395;53.204;6.502;2023-05-07T12:19:13;26.80;57.90
22456;DHT22;11395;53.204;6.502;2023-05-07T12:22:10;26.80;57.70
22456;DHT22;11395;53.204;6.502;2023-05-07T12:24:58;26.90;57.70
22456;DHT22;11395;53.204;6.502;2023-05-07T12:27:36;26.80;58.20
22456;DHT22;11395;53.204;6.502;2023-05-07T12:30:12;26.60;57.80
22456;DHT22;11395;53.204;6.502;2023-05-07T12:32:55;26.80;58.50
22456;DHT22;11395;53.204;6.502;2023-05-07T12:36:04;27.70;58.80
22456;DHT22;11395;53.204;6.502;2023-05-07T12:38:43;26.80;58.40
22456;DHT22;11395;53.204;6.502;2023-05-07T12:41:10;26.90;58.20
22456;DHT22;11395;53.204;6.502;2023-05-07T12:43:38;26.80;58.90
22456;DHT22;11395;53.204;6.502;2023-05-07T12:46:06;26.90;58.80
22456;DHT22;11395;53.204;6.502;2023-05-07T12:48:33;26.90;58.50
22456;DHT22;11395;53.204;6.502;2023-05-07T12:51:01;26.90;58.30
22456;DHT22;11395;53.204;6.502;2023-05-07T12:53:50;26.90;58.50
22456;DHT22;11395;53.204;6.502;2023-05-07T12:56:19;26.90;58.10
22456;DHT22;11395;53.204;6.502;2023-05-07T13:00:06;26.70;58.00
22456;DHT22;11395;53.204;6.502;2023-05-07T13:02:33;26.90;57.90
22456;DHT22;11395;53.204;6.502;2023-05-07T13:05:21;26.90;58.30
22456;DHT22;11395;53.204;6.502;2023-05-07T13:08:05;27.50;58.60
22456;DHT22;11395;53.204;6.502;2023-05-07T13:14:14;25.90;57.40
22456;DHT22;11395;53.204;6.502;2023-05-07T13:17:10;26.90;58.30
22456;DHT22;11395;53.204;6.502;2023-05-07T13:20:02;26.90;59.40
22456;DHT22;11395;53.204;6.502;2023-05-07T13:22:34;26.90;59.30
22456;DHT22;11395;53.204;6.502;2023-05-07T13:25:09;26.90;58.30
22456;DHT22;11395;53.204;6.502;2023-05-07T13:27:35;26.70;58.90
22456;DHT22;11395;53.204;6.502;2023-05-07T13:30:06;26.90;59.20
22456;DHT22;11395;53.204;6.502;2023-05-07T13:32:39;27.00;58.40
22456;DHT22;11395;53.204;6.502;2023-05-07T13:35:06;27.00;59.10
22456;DHT22;11395;53.204;6.502;2023-05-07T13:37:39;27.00;57.80
22456;DHT22;11395;53.204;6.502;2023-05-07T13:40:05;27.00;58.80
22456;DHT22;11395;53.204;6.502;2023-05-07T13:42:32;27.10;58.00
22456;DHT22;11395;53.204;6.502;2023-05-07T13:44:58;27.10;58.80
22456;DHT22;11395;53.204;6.502;2023-05-07T13:47:24;27.20;58.10
22456;DHT22;11395;53.204;6.502;2023-05-07T13:49:50;27.20;58.40
22456;DHT22;11395;53.204;6.502;2023-05-07T13:52:17;27.20;58.30
22456;DHT22;11395;53.204;6.502;2023-05-07T13:54:43;27.30;58.10
22456;DHT22;11395;53.204;6.502;2023-05-07T13:57:09;27.30;57.70
22456;DHT22;11395;53.204;6.502;2023-05-07T13:59:35;27.40;57.90
22456;DHT22;11395;53.204;6.502;2023-05-07T14:02:02;27.30;57.70
22456;DHT22;11395;53.204;6.502;2023-05-07T14:04:28;27.40;57.70
22456;DHT22;11395;53.204;6.502;2023-05-07T14:06:54;27.40;57.40
22456;DHT22;11395;53.204;6.502;2023-05-07T14:09:20;27.40;57.30
22456;DHT22;11395;53.204;6.502;2023-05-07T14:11:47;27.40;57.30
22456;DHT22;11395;53.204;6.502;2023-05-07T14:14:18;27.40;57.20
22456;DHT22;11395;53.204;6.502;2023-05-07T14:16:50;27.40;57.20
22456;DHT22;11395;53.204;6.502;2023-05-07T14:19:16;27.40;57.70
22456;DHT22;11395;53.204;6.502;2023-05-07T14:21:42;27.40;57.60
22456;DHT22;11395;53.204;6.502;2023-05-07T14:24:08;27.40;57.20
22456;DHT22;11395;53.204;6.502;2023-05-07T14:37:29;27.40;57.40
22456;DHT22;11395;53.204;6.502;2023-05-07T14:39:55;27.50;58.20
22456;DHT22;11395;53.204;6.502;2023-05-07T14:42:21;27.30;57.60
22456;DHT22;11395;53.204;6.502;2023-05-07T14:44:48;27.30;58.20
22456;DHT22;11395;53.204;6.502;2023-05-07T14:47:17;27.40;57.90
22456;DHT22;11395;53.204;6.502;2023-05-07T14:49:47;27.40;57.50
22456;DHT22;11395;53.204;6.502;2023-05-07T14:52:15;27.30;58.20
22456;DHT22;11395;53.204;6.502;2023-05-07T14:54:42;27.50;58.40
22456;DHT22;11395;53.204;6.502;2023-05-07T14:57:09;27.50;57.90
22456;DHT22;11395;53.204;6.502;2023-05-07T14:59:45;27.50;57.10
22456;DHT22;11395;53.204;6.502;2023-05-07T15:02:22;28.30;58.60
22456;DHT22;11395;53.204;6.502;2023-05-07T15:04:54;27.50;56.80
22456;DHT22;11395;53.204;6.502;2023-05-07T15:07:32;27.70;57.40
22456;DHT22;11395;53.204;6.502;2023-05-07T15:10:41;27.50;56.70
22456;DHT22;11395;53.204;6.502;2023-05-07T15:13:11;27.70;57.00
22456;DHT22;11395;53.204;6.502;2023-05-07T15:15:42;27.60;56.30
22456;DHT22;11395;53.204;6.502;2023-05-07T15:18:09;27.60;56.20
22456;DHT22;11395;53.204;6.502;2023-05-07T15:20:36;27.60;56.40
22456;DHT22;11395;53.204;6.502;2023-05-07T15:23:02;27.70;56.60
22456;DHT22;11395;53.204;6.502;2023-05-07T15:25:31;27.40;56.40
22456;DHT22;11395;53.204;6.502;2023-05-07T15:27:59;27.40;56.50
22456;DHT22;11395;53.204;6.502;2023-05-07T15:30:25;27.30;56.50
22456;DHT22;11395;53.204;6.502;2023-05-07T15:32:52;27.40;56.50
22456;DHT22;11395;53.204;6.502;2023-05-07T15:35:18;27.30;56.50
22456;DHT22;11395;53.204;6.502;2023-05-07T15:37:48;27.20;56.50
22456;DHT22;11395;53.204;6.502;2023-05-07T15:40:18;27.20;56.60
22456;DHT22;11395;53.204;6.502;2023-05-07T15:42:45;27.10;56.60
22456;DHT22;11395;53.204;6.502;2023-05-07T15:45:11;27.40;56.80
22456;DHT22;11395;53.204;6.502;2023-05-07T15:47:38;27.10;56.70
22456;DHT22;11395;53.204;6.502;2023-05-07T15:50:04;27.20;56.80
22456;DHT22;11395;53.204;6.502;2023-05-07T15:52:30;27.00;56.80
22456;DHT22;11395;53.204;6.502;2023-05-07T15:54:57;27.10;57.00
22456;DHT22;11395;53.204;6.502;2023-05-07T15:57:23;27.00;56.90
22456;DHT22;11395;53.204;6.502;2023-05-07T15:59:51;27.00;57.00
22456;DHT22;11395;53.204;6.502;2023-05-07T16:02:17;26.90;57.00
22456;DHT22;11395;53.204;6.502;2023-05-07T16:04:43;26.90;57.10
22456;DHT22;11395;53.204;6.502;2023-05-07T16:07:12;26.90;57.30